ED1ZAS
43.27.52N 005.40.17W
IN73DL aprs.fi
zuletzt gehoert:
2023-02-04T22:39:05Z
zuerst gehoert:
2020-02-10T15:05:12Z

APRS Siero [IN73DK], 2 Stunde(n), ED1ZAS [23:51:51, 0s].
ED1ZAS 43.27.52N 005.40.17WIN73DL 0.417km 345°NNW22:39:05ZRD985 438.2250/430.6250 CC1
ED1ZAE 43.27.99N 005.40.54WIN73DL 1.393km 334°NNW22:35:33Z400 M. PICO SAN MARTIN (GIJON) 13.2V,8.0C(3ED1ZAE-3)
EA4ACU 43.29.56N 005.38.92WIN73EL 4.471km 21°NNE22:41:54ZMMDVM MMDVM HS Hat 432.7000/432.7000 CC1(3EA4ACU-1)
EB1GEM 43.30.00N 005.36.07WIN73EM 7.375km 47°NE22:45:07ZWX3in1Plus2.0 U=13.3V,T=??.?C/??.?F(3EB1GEM-3)
EA1DZR 43.31.49N 005.40.00WIN73DM 7.761km N22:41:04ZMMDVM MMDVM HS Hat 432.2000/432.2000 CC2(3EA1DZR-2)
MMDVM DMO 434.3500/434.3500 CC1(2EA1DZR-4)
MMDVM DVMega 431.1000/431.1000 CC1(2EA1DZR-1)
EA1FFA 43.31.53N 005.40.64WIN73DM 7.868km 355°N22:41:22ZMMDVM MMDVM HS Hat 438.8000/438.8000 CC1(3EA1FFA-1)
EA1IPU 43.26.21N 005.46.62WIN73CK 8.999km 257°WSW22:41:06ZMMDVM MMDVM HS Hat 439.8000/439.8000 CC1(3EA1IPU-1)
EA1IEJ 43.32.33N 005.38.92WIN73EM 9.433km 10°N22:41:10ZMMDVM DMO 222.3400/222.3400 CC1(3EA1IEJ-11)
MMDVM MMDVM HS Hat 438.8500/438.8500 CC6(2EA1IEJ-1)
EB1TK 43.32.22N 005.42.32WIN73DM 9.588km 342°NNW22:45:16ZWind 093°/009kn, Böen bis 015kn, Temp 10.56c, Regen 0.0mm, letzte 24h 0.0mm, seit 0h 0.0mm, Baro 1042.3h, Hum: 76%(3EB1TK-13)
EA1FPN 43.32.38N 005.42.17WIN73DM 9.794km 344°NNW22:40:26ZMMDVM MMDVM HS Hat 439.8750/439.8750 CC1
LEEL 43.32.98N 005.41.71WIN73DN 10.725km 348°NNW22:30:07ZHelipuerto de El Musel: LEAS 042130Z 11005KT 080V150 9999 SCT025 08/05 Q1039 NOSIG=
EA1FLQ 43.22.00N 005.36.35WIN73EI 11.057km 153°SSE22:39:48ZMMDVM DVMega 430.9750/430.9750 CC1
EA1ABW 43.24.77N 005.47.77WIN73CJ 11.347km 246°WSW22:40:42ZMMDVM MMDVM HS Hat 439.8250/439.8250 CC1(3EA1ABW-2)
LEMR 43.25.83N 005.49.60WIN73CK 13.083km 258°WSW22:30:06ZAerodromo de la Morgal (123.500MHz): LEAS 042130Z 11005KT 080V150 9999 SCT025 08/05 Q1039 NOSIG=
LEGM 43.26.15N 005.49.84WIN73CK 13.273km 261°W22:30:06ZHelipuerto de La Morgal (123.500MHz): LEAS 042130Z 11005KT 080V150 9999 SCT025 08/05 Q1039 NOSIG=
LEHU 43.22.63N 005.49.57WIN73CJ 15.427km 236°SW22:30:06ZHelipuerto del HUCA: LEAS 042130Z 11005KT 080V150 9999 SCT025 08/05 Q1039 NOSIG=
EA1JW 43.31.35N 005.28.83WIN73GM 16.900km 64°ENE22:40:55ZMMDVM MMDVM HS Hat 436.5000/436.5000 CC1(3EA1JW-3)
EA1JBU 43.21.85N 005.51.13WIN73BI 17.978km 236°SW22:00:11ZEA1JBU(3EA1JBU-1)
33D00 43.21.63N 005.51.13WIN73BI 18.200km 235°SW22:01:42Z33-D-00 Protección Civil REMER / Delegación del Gobierno en Asturias
EA1JAY 43.21.54N 005.51.34WIN73BI 18.538km 235°SW22:30:10ZEA1JAY(3EA1JAY-2)
434.525MHz Nodo TETRA DMO(2EA1JAY-4)
EA1FHR 43.28.72N 005.26.41WIN73GL 18.584km 82°E22:39:34ZMMDVM MMDVM HS Hat 439.1500/439.1500 CC1
ED1ZAU 43.23.04N 005.52.75WIN73BJ 18.785km 245°WSW22:39:06ZRD625 438.5000/430.9000 CC1
EA1HJA 43.21.47N 005.52.09WIN73BI 19.433km 236°SW22:46:08Z IN73FL WX3IN1+ 2.0 - V=13.3V,TX TEMP=20.5C(3EA1HJA-2)
IN73FL WX3IN1+ 2.0 - V=14.0V,TX TEMP=41.8C(2EA1HJA)
EA1L 43.20.37N 005.51.13WIN73BI 19.633km 229°SW22:50:06ZWind 063°/002kn, Böen bis 006kn, Temp 7.78c, Regen 0.0mm, letzte 24h 0.0mm, seit 0h 0.0mm, Baro 1037.4h, Hum: 88%(3EA1L-13)
EA1HWX 43.19.29N 005.50.96WIN73BH 20.860km 225°SW22:41:25ZDMO - UHF 439.7250/431.0000 CC11(3EA1HWX-2)
ED1ZAY 43.29.47N 005.56.54WIN73AL 22.479km 280°W22:39:10ZRD625 438.3000/430.7000 CC1
EA1IMW 43.14.36N 005.46.93WIN73CF 25.703km 201°SSW22:41:07ZGRUPO RADIO GALENA (GRG) 430.4500/430.4500 CC1(3EA1IMW-1)
EB1DGC 43.12.60N 005.45.59WIN73CF 28.250km 195°SSW22:39:37ZMMDVM MMDVM HS Hat 433.4500/433.4500 CC1
EA1HWA 43.12.00N 005.47.40WIN73CE 30.029km 199°SSW22:40:03ZMMDVM MMDVM HS Hat 433.4500/433.4500 CC1
EA1JBE 43.30.90N 005.16.15WIN73IM 32.881km 78°ENE22:50:26ZMAIN QTH http://qrz.com/db/ea1jbe(3EA1JBE-1)
MAIN QTH http://qrz.com/db/ea1jbe(2EA1JBE-13)
ED1ZAD 43.07.90N 005.38.52WIN73ED 36.014km 177°S22:40:46ZED1ZAD-3 APRS Digi/Igate(3ED1ZAD-3)
EA1AYL 43.29.44N 006.09.04WIN63WL 39.125km 276°W22:39:43ZMMDVM MMDVM HS Hat 433.0750/433.0750 CC1
ED1ZBF 43.19.16N 005.06.74WIN73KH 47.378km 108°ESE22:39:10ZRD625 438.4750/430.8750 CC1
EC1KV 43.34.01N 006.16.01WIN63UN 49.825km 285°WNW22:47:31Z VOLT.=13.7 V - TEMP.=??.? C(3EC1KV-1)

aprs.pl 5.0.011w DL3EL © 2006-2021 [10387674]